sensor_id;sensor_type;location;lat;lon;timestamp;P1;durP1;ratioP1;P2;durP2;ratioP2
74415;SDS011;62850;42.428;25.618;2022-12-07T00:01:06;31.30;;;16.27;;
74415;SDS011;62850;42.428;25.618;2022-12-07T00:03:36;34.22;;;15.30;;
74415;SDS011;62850;42.428;25.618;2022-12-07T00:06:03;32.80;;;15.43;;
74415;SDS011;62850;42.428;25.618;2022-12-07T00:08:30;34.70;;;15.85;;
74415;SDS011;62850;42.428;25.618;2022-12-07T00:11:00;32.75;;;14.93;;
74415;SDS011;62850;42.428;25.618;2022-12-07T00:13:27;29.60;;;13.95;;
74415;SDS011;62850;42.428;25.618;2022-12-07T00:15:52;30.30;;;14.30;;
74415;SDS011;62850;42.428;25.618;2022-12-07T00:18:18;31.50;;;15.25;;
74415;SDS011;62850;42.428;25.618;2022-12-07T00:20:43;27.00;;;14.73;;
74415;SDS011;62850;42.428;25.618;2022-12-07T00:23:09;25.15;;;10.77;;
74415;SDS011;62850;42.428;25.618;2022-12-07T00:25:34;21.52;;;9.80;;
74415;SDS011;62850;42.428;25.618;2022-12-07T00:27:59;25.88;;;11.05;;
74415;SDS011;62850;42.428;25.618;2022-12-07T00:30:25;21.95;;;10.50;;
74415;SDS011;62850;42.428;25.618;2022-12-07T00:32:50;23.40;;;8.98;;
74415;SDS011;62850;42.428;25.618;2022-12-07T00:35:16;23.25;;;10.15;;
74415;SDS011;62850;42.428;25.618;2022-12-07T00:37:41;20.73;;;9.57;;
74415;SDS011;62850;42.428;25.618;2022-12-07T00:40:07;24.33;;;10.43;;
74415;SDS011;62850;42.428;25.618;2022-12-07T00:42:33;23.55;;;10.57;;
74415;SDS011;62850;42.428;25.618;2022-12-07T00:44:59;20.92;;;9.50;;
74415;SDS011;62850;42.428;25.618;2022-12-07T00:47:24;23.73;;;10.90;;
74415;SDS011;62850;42.428;25.618;2022-12-07T00:49:50;18.80;;;8.90;;
74415;SDS011;62850;42.428;25.618;2022-12-07T00:52:15;19.45;;;8.93;;
74415;SDS011;62850;42.428;25.618;2022-12-07T00:54:41;25.48;;;10.60;;
74415;SDS011;62850;42.428;25.618;2022-12-07T00:57:06;20.80;;;9.80;;
74415;SDS011;62850;42.428;25.618;2022-12-07T00:59:32;19.75;;;9.85;;
74415;SDS011;62850;42.428;25.618;2022-12-07T01:01:57;18.60;;;8.75;;
74415;SDS011;62850;42.428;25.618;2022-12-07T01:04:23;21.55;;;9.25;;
74415;SDS011;62850;42.428;25.618;2022-12-07T01:06:48;17.95;;;9.23;;
74415;SDS011;62850;42.428;25.618;2022-12-07T01:09:14;22.25;;;8.80;;
74415;SDS011;62850;42.428;25.618;2022-12-07T01:11:39;21.10;;;9.48;;
74415;SDS011;62850;42.428;25.618;2022-12-07T01:14:05;18.70;;;8.52;;
74415;SDS011;62850;42.428;25.618;2022-12-07T01:16:31;26.23;;;9.98;;
74415;SDS011;62850;42.428;25.618;2022-12-07T01:18:57;23.95;;;10.63;;
74415;SDS011;62850;42.428;25.618;2022-12-07T01:21:25;22.10;;;9.00;;
74415;SDS011;62850;42.428;25.618;2022-12-07T01:23:52;23.25;;;9.63;;
74415;SDS011;62850;42.428;25.618;2022-12-07T01:26:19;21.50;;;9.10;;
74415;SDS011;62850;42.428;25.618;2022-12-07T01:28:46;19.77;;;8.82;;
74415;SDS011;62850;42.428;25.618;2022-12-07T01:31:16;27.30;;;9.32;;
74415;SDS011;62850;42.428;25.618;2022-12-07T01:33:45;22.90;;;9.35;;
74415;SDS011;62850;42.428;25.618;2022-12-07T01:36:14;22.90;;;10.13;;
74415;SDS011;62850;42.428;25.618;2022-12-07T01:38:42;25.98;;;9.85;;
74415;SDS011;62850;42.428;25.618;2022-12-07T01:41:09;21.77;;;8.40;;
74415;SDS011;62850;42.428;25.618;2022-12-07T01:43:34;24.60;;;9.75;;
74415;SDS011;62850;42.428;25.618;2022-12-07T01:46:01;25.40;;;11.02;;
74415;SDS011;62850;42.428;25.618;2022-12-07T01:48:38;30.35;;;12.60;;
74415;SDS011;62850;42.428;25.618;2022-12-07T01:51:10;31.88;;;13.45;;
74415;SDS011;62850;42.428;25.618;2022-12-07T01:53:38;40.05;;;15.90;;
74415;SDS011;62850;42.428;25.618;2022-12-07T01:56:08;35.13;;;16.58;;
74415;SDS011;62850;42.428;25.618;2022-12-07T01:58:36;36.08;;;15.73;;
74415;SDS011;62850;42.428;25.618;2022-12-07T02:01:02;31.33;;;15.57;;
74415;SDS011;62850;42.428;25.618;2022-12-07T02:03:30;33.05;;;15.93;;
74415;SDS011;62850;42.428;25.618;2022-12-07T02:05:59;38.60;;;17.02;;
74415;SDS011;62850;42.428;25.618;2022-12-07T02:08:25;36.67;;;17.38;;
74415;SDS011;62850;42.428;25.618;2022-12-07T02:10:51;29.15;;;14.00;;
74415;SDS011;62850;42.428;25.618;2022-12-07T02:13:21;31.98;;;12.57;;
74415;SDS011;62850;42.428;25.618;2022-12-07T02:21:13;24.80;;;9.93;;
74415;SDS011;62850;42.428;25.618;2022-12-07T02:29:22;22.73;;;9.32;;
74415;SDS011;62850;42.428;25.618;2022-12-07T02:34:39;23.00;;;9.55;;
74415;SDS011;62850;42.428;25.618;2022-12-07T02:37:19;21.27;;;9.05;;
74415;SDS011;62850;42.428;25.618;2022-12-07T02:39:59;22.05;;;9.15;;
74415;SDS011;62850;42.428;25.618;2022-12-07T02:42:43;21.63;;;10.43;;
74415;SDS011;62850;42.428;25.618;2022-12-07T02:45:13;22.65;;;8.43;;
74415;SDS011;62850;42.428;25.618;2022-12-07T02:47:42;19.60;;;8.10;;
74415;SDS011;62850;42.428;25.618;2022-12-07T02:50:10;24.00;;;9.60;;
74415;SDS011;62850;42.428;25.618;2022-12-07T02:52:36;18.45;;;8.70;;
74415;SDS011;62850;42.428;25.618;2022-12-07T02:55:01;19.02;;;8.77;;
74415;SDS011;62850;42.428;25.618;2022-12-07T03:00:19;19.42;;;8.45;;
74415;SDS011;62850;42.428;25.618;2022-12-07T03:03:04;23.70;;;9.52;;
74415;SDS011;62850;42.428;25.618;2022-12-07T03:16:25;23.42;;;9.48;;
74415;SDS011;62850;42.428;25.618;2022-12-07T03:18:56;20.67;;;8.90;;
74415;SDS011;62850;42.428;25.618;2022-12-07T03:21:32;23.00;;;8.70;;
74415;SDS011;62850;42.428;25.618;2022-12-07T03:24:04;21.83;;;8.75;;
74415;SDS011;62850;42.428;25.618;2022-12-07T03:26:34;18.98;;;8.23;;
74415;SDS011;62850;42.428;25.618;2022-12-07T03:29:07;22.92;;;9.10;;
74415;SDS011;62850;42.428;25.618;2022-12-07T03:31:43;18.08;;;7.85;;
74415;SDS011;62850;42.428;25.618;2022-12-07T03:34:30;26.02;;;9.07;;
74415;SDS011;62850;42.428;25.618;2022-12-07T03:37:03;18.55;;;8.57;;
74415;SDS011;62850;42.428;25.618;2022-12-07T03:39:35;22.13;;;9.50;;
74415;SDS011;62850;42.428;25.618;2022-12-07T03:42:09;23.13;;;10.15;;
74415;SDS011;62850;42.428;25.618;2022-12-07T03:44:36;22.38;;;9.88;;
74415;SDS011;62850;42.428;25.618;2022-12-07T03:55:18;24.98;;;10.10;;
74415;SDS011;62850;42.428;25.618;2022-12-07T03:57:50;26.33;;;10.60;;
74415;SDS011;62850;42.428;25.618;2022-12-07T04:00:18;22.25;;;10.52;;
74415;SDS011;62850;42.428;25.618;2022-12-07T04:02:44;21.67;;;9.95;;
74415;SDS011;62850;42.428;25.618;2022-12-07T04:05:10;22.65;;;9.60;;
74415;SDS011;62850;42.428;25.618;2022-12-07T04:07:36;22.63;;;9.35;;
74415;SDS011;62850;42.428;25.618;2022-12-07T04:10:02;21.20;;;9.70;;
74415;SDS011;62850;42.428;25.618;2022-12-07T04:12:28;22.08;;;9.52;;
74415;SDS011;62850;42.428;25.618;2022-12-07T04:14:54;21.30;;;9.48;;
74415;SDS011;62850;42.428;25.618;2022-12-07T04:17:20;22.13;;;10.43;;
74415;SDS011;62850;42.428;25.618;2022-12-07T04:19:45;21.42;;;9.05;;
74415;SDS011;62850;42.428;25.618;2022-12-07T04:22:11;21.63;;;8.43;;
74415;SDS011;62850;42.428;25.618;2022-12-07T04:24:36;20.48;;;8.73;;
74415;SDS011;62850;42.428;25.618;2022-12-07T04:27:02;21.83;;;8.68;;
74415;SDS011;62850;42.428;25.618;2022-12-07T04:29:27;21.25;;;9.38;;
74415;SDS011;62850;42.428;25.618;2022-12-07T04:31:53;21.15;;;9.73;;
74415;SDS011;62850;42.428;25.618;2022-12-07T04:34:19;25.25;;;10.30;;
74415;SDS011;62850;42.428;25.618;2022-12-07T04:36:46;22.23;;;10.00;;
74415;SDS011;62850;42.428;25.618;2022-12-07T04:39:21;22.60;;;8.90;;
74415;SDS011;62850;42.428;25.618;2022-12-07T04:41:48;26.50;;;10.55;;
74415;SDS011;62850;42.428;25.618;2022-12-07T04:44:14;20.10;;;9.48;;
74415;SDS011;62850;42.428;25.618;2022-12-07T04:46:41;21.10;;;8.90;;
74415;SDS011;62850;42.428;25.618;2022-12-07T04:49:07;32.80;;;10.98;;
74415;SDS011;62850;42.428;25.618;2022-12-07T04:51:33;22.35;;;9.77;;
74415;SDS011;62850;42.428;25.618;2022-12-07T04:53:59;22.98;;;10.32;;
74415;SDS011;62850;42.428;25.618;2022-12-07T04:56:24;20.90;;;9.50;;
74415;SDS011;62850;42.428;25.618;2022-12-07T04:58:50;28.65;;;9.63;;
74415;SDS011;62850;42.428;25.618;2022-12-07T05:01:17;26.55;;;9.57;;
74415;SDS011;62850;42.428;25.618;2022-12-07T05:03:43;22.05;;;9.55;;
74415;SDS011;62850;42.428;25.618;2022-12-07T05:06:09;25.15;;;10.73;;
74415;SDS011;62850;42.428;25.618;2022-12-07T05:08:35;24.67;;;10.48;;
74415;SDS011;62850;42.428;25.618;2022-12-07T05:11:02;28.58;;;11.43;;
74415;SDS011;62850;42.428;25.618;2022-12-07T05:13:29;25.15;;;10.32;;
74415;SDS011;62850;42.428;25.618;2022-12-07T05:15:55;25.10;;;10.15;;
74415;SDS011;62850;42.428;25.618;2022-12-07T05:18:20;26.00;;;11.75;;
74415;SDS011;62850;42.428;25.618;2022-12-07T05:20:46;25.92;;;11.13;;
74415;SDS011;62850;42.428;25.618;2022-12-07T05:23:11;23.25;;;10.32;;
74415;SDS011;62850;42.428;25.618;2022-12-07T05:25:37;26.95;;;12.02;;
74415;SDS011;62850;42.428;25.618;2022-12-07T05:28:03;26.88;;;11.63;;
74415;SDS011;62850;42.428;25.618;2022-12-07T05:30:30;30.42;;;12.73;;
74415;SDS011;62850;42.428;25.618;2022-12-07T05:32:56;28.55;;;12.77;;
74415;SDS011;62850;42.428;25.618;2022-12-07T05:35:22;28.48;;;12.45;;
74415;SDS011;62850;42.428;25.618;2022-12-07T05:37:48;28.60;;;12.50;;
74415;SDS011;62850;42.428;25.618;2022-12-07T05:40:14;34.65;;;14.55;;
74415;SDS011;62850;42.428;25.618;2022-12-07T05:42:40;34.38;;;12.93;;
74415;SDS011;62850;42.428;25.618;2022-12-07T05:45:06;38.08;;;15.02;;
74415;SDS011;62850;42.428;25.618;2022-12-07T05:47:32;38.63;;;16.75;;
74415;SDS011;62850;42.428;25.618;2022-12-07T05:49:58;43.50;;;17.77;;
74415;SDS011;62850;42.428;25.618;2022-12-07T05:52:23;38.97;;;18.60;;
74415;SDS011;62850;42.428;25.618;2022-12-07T05:54:49;38.78;;;18.60;;
74415;SDS011;62850;42.428;25.618;2022-12-07T05:57:15;40.97;;;19.20;;
74415;SDS011;62850;42.428;25.618;2022-12-07T05:59:40;41.13;;;17.73;;
74415;SDS011;62850;42.428;25.618;2022-12-07T06:02:10;41.72;;;18.02;;
74415;SDS011;62850;42.428;25.618;2022-12-07T06:04:41;36.85;;;18.55;;
74415;SDS011;62850;42.428;25.618;2022-12-07T06:07:08;40.47;;;17.10;;
74415;SDS011;62850;42.428;25.618;2022-12-07T06:09:36;35.05;;;16.38;;
74415;SDS011;62850;42.428;25.618;2022-12-07T06:12:02;35.38;;;15.73;;
74415;SDS011;62850;42.428;25.618;2022-12-07T06:14:47;30.98;;;16.45;;
74415;SDS011;62850;42.428;25.618;2022-12-07T06:17:13;37.65;;;18.17;;
74415;SDS011;62850;42.428;25.618;2022-12-07T06:19:39;31.60;;;16.42;;
74415;SDS011;62850;42.428;25.618;2022-12-07T06:22:05;35.97;;;16.42;;
74415;SDS011;62850;42.428;25.618;2022-12-07T06:24:32;39.22;;;18.42;;
74415;SDS011;62850;42.428;25.618;2022-12-07T06:26:58;40.60;;;19.73;;
74415;SDS011;62850;42.428;25.618;2022-12-07T06:29:24;41.45;;;16.48;;
74415;SDS011;62850;42.428;25.618;2022-12-07T06:31:50;33.28;;;14.68;;
74415;SDS011;62850;42.428;25.618;2022-12-07T06:34:17;29.98;;;15.70;;
74415;SDS011;62850;42.428;25.618;2022-12-07T06:36:44;30.58;;;16.63;;
74415;SDS011;62850;42.428;25.618;2022-12-07T06:39:10;30.60;;;13.93;;
74415;SDS011;62850;42.428;25.618;2022-12-07T06:41:36;35.28;;;15.63;;
74415;SDS011;62850;42.428;25.618;2022-12-07T06:44:03;31.88;;;14.85;;
74415;SDS011;62850;42.428;25.618;2022-12-07T06:46:32;105.68;;;39.22;;
74415;SDS011;62850;42.428;25.618;2022-12-07T06:48:57;110.43;;;42.40;;
74415;SDS011;62850;42.428;25.618;2022-12-07T06:51:23;43.42;;;18.40;;
74415;SDS011;62850;42.428;25.618;2022-12-07T06:53:49;30.17;;;14.45;;
74415;SDS011;62850;42.428;25.618;2022-12-07T06:56:15;38.85;;;16.55;;
74415;SDS011;62850;42.428;25.618;2022-12-07T06:58:40;34.88;;;15.15;;
74415;SDS011;62850;42.428;25.618;2022-12-07T07:01:10;39.55;;;16.80;;
74415;SDS011;62850;42.428;25.618;2022-12-07T07:06:03;28.63;;;14.68;;
74415;SDS011;62850;42.428;25.618;2022-12-07T07:08:28;34.13;;;15.65;;
74415;SDS011;62850;42.428;25.618;2022-12-07T07:10:54;40.50;;;16.95;;
74415;SDS011;62850;42.428;25.618;2022-12-07T07:13:19;39.67;;;16.05;;
74415;SDS011;62850;42.428;25.618;2022-12-07T07:15:45;34.78;;;15.27;;
74415;SDS011;62850;42.428;25.618;2022-12-07T07:18:11;42.92;;;18.60;;
74415;SDS011;62850;42.428;25.618;2022-12-07T07:20:36;41.25;;;18.40;;
74415;SDS011;62850;42.428;25.618;2022-12-07T07:23:03;47.75;;;21.73;;
74415;SDS011;62850;42.428;25.618;2022-12-07T07:25:29;44.88;;;23.58;;
74415;SDS011;62850;42.428;25.618;2022-12-07T07:27:54;45.45;;;21.88;;
74415;SDS011;62850;42.428;25.618;2022-12-07T07:30:20;53.47;;;27.48;;
74415;SDS011;62850;42.428;25.618;2022-12-07T07:32:46;45.60;;;21.65;;
74415;SDS011;62850;42.428;25.618;2022-12-07T07:35:11;41.05;;;19.70;;
74415;SDS011;62850;42.428;25.618;2022-12-07T07:37:39;39.45;;;19.25;;
74415;SDS011;62850;42.428;25.618;2022-12-07T07:40:05;44.80;;;20.50;;
74415;SDS011;62850;42.428;25.618;2022-12-07T07:42:31;54.13;;;24.02;;
74415;SDS011;62850;42.428;25.618;2022-12-07T07:44:56;57.00;;;23.90;;
74415;SDS011;62850;42.428;25.618;2022-12-07T07:47:22;39.35;;;19.70;;
74415;SDS011;62850;42.428;25.618;2022-12-07T07:49:47;55.67;;;21.98;;
74415;SDS011;62850;42.428;25.618;2022-12-07T07:52:13;36.25;;;15.85;;
74415;SDS011;62850;42.428;25.618;2022-12-07T07:54:38;35.22;;;16.13;;
74415;SDS011;62850;42.428;25.618;2022-12-07T07:57:04;34.72;;;16.42;;
74415;SDS011;62850;42.428;25.618;2022-12-07T07:59:29;53.22;;;20.92;;
74415;SDS011;62850;42.428;25.618;2022-12-07T08:01:55;32.80;;;15.13;;
74415;SDS011;62850;42.428;25.618;2022-12-07T08:04:20;39.28;;;17.15;;
74415;SDS011;62850;42.428;25.618;2022-12-07T08:06:46;38.35;;;16.80;;
74415;SDS011;62850;42.428;25.618;2022-12-07T08:09:12;38.88;;;16.92;;
74415;SDS011;62850;42.428;25.618;2022-12-07T08:11:37;33.40;;;14.38;;
74415;SDS011;62850;42.428;25.618;2022-12-07T08:14:03;30.25;;;15.35;;
74415;SDS011;62850;42.428;25.618;2022-12-07T08:16:28;32.97;;;17.10;;
74415;SDS011;62850;42.428;25.618;2022-12-07T08:18:54;34.65;;;15.93;;
74415;SDS011;62850;42.428;25.618;2022-12-07T08:21:20;39.17;;;16.00;;
74415;SDS011;62850;42.428;25.618;2022-12-07T08:23:45;41.67;;;17.05;;
74415;SDS011;62850;42.428;25.618;2022-12-07T08:26:14;38.00;;;18.05;;
74415;SDS011;62850;42.428;25.618;2022-12-07T08:28:41;35.53;;;15.70;;
74415;SDS011;62850;42.428;25.618;2022-12-07T08:31:08;51.80;;;19.83;;
74415;SDS011;62850;42.428;25.618;2022-12-07T08:33:36;48.75;;;18.73;;
74415;SDS011;62850;42.428;25.618;2022-12-07T08:36:03;44.63;;;19.42;;
74415;SDS011;62850;42.428;25.618;2022-12-07T08:38:30;43.72;;;18.15;;
74415;SDS011;62850;42.428;25.618;2022-12-07T08:40:57;73.50;;;27.40;;
74415;SDS011;62850;42.428;25.618;2022-12-07T08:43:23;53.80;;;21.55;;
74415;SDS011;62850;42.428;25.618;2022-12-07T08:49:18;36.20;;;16.77;;
74415;SDS011;62850;42.428;25.618;2022-12-07T08:51:47;34.58;;;15.98;;
74415;SDS011;62850;42.428;25.618;2022-12-07T08:54:14;34.80;;;16.80;;
74415;SDS011;62850;42.428;25.618;2022-12-07T08:56:41;33.30;;;17.55;;
74415;SDS011;62850;42.428;25.618;2022-12-07T08:59:10;35.03;;;17.48;;
74415;SDS011;62850;42.428;25.618;2022-12-07T09:01:38;30.52;;;14.80;;
74415;SDS011;62850;42.428;25.618;2022-12-07T09:04:03;31.33;;;15.57;;
74415;SDS011;62850;42.428;25.618;2022-12-07T09:06:29;34.83;;;16.02;;
74415;SDS011;62850;42.428;25.618;2022-12-07T09:08:55;45.03;;;19.00;;
74415;SDS011;62850;42.428;25.618;2022-12-07T09:11:25;40.67;;;18.38;;
74415;SDS011;62850;42.428;25.618;2022-12-07T09:13:50;41.33;;;17.92;;
74415;SDS011;62850;42.428;25.618;2022-12-07T09:16:16;47.38;;;20.08;;
74415;SDS011;62850;42.428;25.618;2022-12-07T09:18:41;51.95;;;23.52;;
74415;SDS011;62850;42.428;25.618;2022-12-07T09:21:07;51.03;;;24.65;;
74415;SDS011;62850;42.428;25.618;2022-12-07T09:23:32;68.90;;;27.08;;
74415;SDS011;62850;42.428;25.618;2022-12-07T09:25:59;69.63;;;27.55;;
74415;SDS011;62850;42.428;25.618;2022-12-07T09:28:25;39.70;;;18.23;;
74415;SDS011;62850;42.428;25.618;2022-12-07T09:30:51;38.22;;;18.38;;
74415;SDS011;62850;42.428;25.618;2022-12-07T09:33:17;34.35;;;16.77;;
74415;SDS011;62850;42.428;25.618;2022-12-07T09:35:46;40.88;;;17.13;;
74415;SDS011;62850;42.428;25.618;2022-12-07T09:38:12;35.13;;;15.23;;
74415;SDS011;62850;42.428;25.618;2022-12-07T09:40:38;31.73;;;15.10;;
74415;SDS011;62850;42.428;25.618;2022-12-07T09:43:04;35.42;;;17.00;;
74415;SDS011;62850;42.428;25.618;2022-12-07T09:45:34;29.02;;;13.65;;
74415;SDS011;62850;42.428;25.618;2022-12-07T09:48:05;41.17;;;17.67;;
74415;SDS011;62850;42.428;25.618;2022-12-07T09:50:31;39.45;;;16.08;;
74415;SDS011;62850;42.428;25.618;2022-12-07T09:53:08;25.25;;;13.70;;
74415;SDS011;62850;42.428;25.618;2022-12-07T09:55:54;29.52;;;13.52;;
74415;SDS011;62850;42.428;25.618;2022-12-07T09:58:24;32.75;;;13.70;;
74415;SDS011;62850;42.428;25.618;2022-12-07T10:01:05;35.42;;;15.45;;
74415;SDS011;62850;42.428;25.618;2022-12-07T10:03:35;35.65;;;16.92;;
74415;SDS011;62850;42.428;25.618;2022-12-07T10:06:03;34.78;;;15.85;;
74415;SDS011;62850;42.428;25.618;2022-12-07T10:08:30;37.35;;;17.38;;
74415;SDS011;62850;42.428;25.618;2022-12-07T10:10:56;29.63;;;15.45;;
74415;SDS011;62850;42.428;25.618;2022-12-07T10:13:35;35.78;;;15.07;;
74415;SDS011;62850;42.428;25.618;2022-12-07T10:18:36;30.70;;;14.73;;
74415;SDS011;62850;42.428;25.618;2022-12-07T10:21:22;29.42;;;15.27;;
74415;SDS011;62850;42.428;25.618;2022-12-07T10:23:59;34.17;;;15.77;;
74415;SDS011;62850;42.428;25.618;2022-12-07T10:32:06;31.15;;;14.57;;
74415;SDS011;62850;42.428;25.618;2022-12-07T10:34:41;30.60;;;14.65;;
74415;SDS011;62850;42.428;25.618;2022-12-07T10:44:47;34.83;;;15.85;;
74415;SDS011;62850;42.428;25.618;2022-12-07T10:52:32;30.85;;;14.85;;
74415;SDS011;62850;42.428;25.618;2022-12-07T11:00:24;33.65;;;14.00;;
74415;SDS011;62850;42.428;25.618;2022-12-07T11:02:58;30.15;;;14.65;;
74415;SDS011;62850;42.428;25.618;2022-12-07T11:08:27;25.27;;;13.27;;
74415;SDS011;62850;42.428;25.618;2022-12-07T11:11:13;29.27;;;14.27;;
74415;SDS011;62850;42.428;25.618;2022-12-07T11:16:23;27.13;;;13.30;;
74415;SDS011;62850;42.428;25.618;2022-12-07T11:21:30;30.20;;;13.95;;
74415;SDS011;62850;42.428;25.618;2022-12-07T11:29:26;32.30;;;12.95;;
74415;SDS011;62850;42.428;25.618;2022-12-07T11:32:14;26.17;;;13.48;;
74415;SDS011;62850;42.428;25.618;2022-12-07T11:34:51;28.20;;;12.70;;
74415;SDS011;62850;42.428;25.618;2022-12-07T11:37:32;26.98;;;11.63;;
74415;SDS011;62850;42.428;25.618;2022-12-07T11:40:05;25.25;;;11.48;;
74415;SDS011;62850;42.428;25.618;2022-12-07T11:43:01;25.38;;;11.95;;
74415;SDS011;62850;42.428;25.618;2022-12-07T11:45:34;30.90;;;11.85;;
74415;SDS011;62850;42.428;25.618;2022-12-07T11:48:03;28.45;;;13.98;;
74415;SDS011;62850;42.428;25.618;2022-12-07T11:50:42;27.58;;;12.93;;
74415;SDS011;62850;42.428;25.618;2022-12-07T11:53:20;26.95;;;11.75;;
74415;SDS011;62850;42.428;25.618;2022-12-07T12:01:14;25.27;;;10.98;;
74415;SDS011;62850;42.428;25.618;2022-12-07T12:04:32;23.88;;;10.85;;
74415;SDS011;62850;42.428;25.618;2022-12-07T12:06:37;30.88;;;11.48;;
74415;SDS011;62850;42.428;25.618;2022-12-07T12:20:32;26.30;;;10.88;;
74415;SDS011;62850;42.428;25.618;2022-12-07T12:23:13;20.80;;;10.98;;
74415;SDS011;62850;42.428;25.618;2022-12-07T12:25:53;26.50;;;10.90;;
74415;SDS011;62850;42.428;25.618;2022-12-07T12:28:23;20.55;;;11.27;;
74415;SDS011;62850;42.428;25.618;2022-12-07T12:31:10;24.15;;;10.20;;
74415;SDS011;62850;42.428;25.618;2022-12-07T12:33:42;23.85;;;11.18;;
74415;SDS011;62850;42.428;25.618;2022-12-07T12:38:51;25.67;;;10.40;;
74415;SDS011;62850;42.428;25.618;2022-12-07T12:47:37;20.40;;;9.65;;
74415;SDS011;62850;42.428;25.618;2022-12-07T13:00:47;21.83;;;8.48;;
74415;SDS011;62850;42.428;25.618;2022-12-07T13:03:34;20.38;;;9.32;;
74415;SDS011;62850;42.428;25.618;2022-12-07T13:08:45;23.40;;;9.60;;
74415;SDS011;62850;42.428;25.618;2022-12-07T13:11:19;28.17;;;9.93;;
74415;SDS011;62850;42.428;25.618;2022-12-07T13:13:56;23.75;;;9.68;;
74415;SDS011;62850;42.428;25.618;2022-12-07T13:16:57;24.20;;;10.57;;
74415;SDS011;62850;42.428;25.618;2022-12-07T13:20:05;23.05;;;9.50;;
74415;SDS011;62850;42.428;25.618;2022-12-07T13:27:37;25.20;;;10.68;;
74415;SDS011;62850;42.428;25.618;2022-12-07T13:30:38;21.92;;;10.93;;
74415;SDS011;62850;42.428;25.618;2022-12-07T13:32:57;27.52;;;10.63;;
74415;SDS011;62850;42.428;25.618;2022-12-07T13:35:31;21.90;;;10.70;;
74415;SDS011;62850;42.428;25.618;2022-12-07T13:37:58;25.30;;;10.77;;
74415;SDS011;62850;42.428;25.618;2022-12-07T13:40:26;25.20;;;11.25;;
74415;SDS011;62850;42.428;25.618;2022-12-07T13:43:01;29.58;;;11.90;;
74415;SDS011;62850;42.428;25.618;2022-12-07T13:45:30;33.05;;;12.82;;
74415;SDS011;62850;42.428;25.618;2022-12-07T13:48:35;29.95;;;11.70;;
74415;SDS011;62850;42.428;25.618;2022-12-07T13:51:16;32.88;;;12.23;;
74415;SDS011;62850;42.428;25.618;2022-12-07T13:53:54;29.55;;;11.15;;
74415;SDS011;62850;42.428;25.618;2022-12-07T13:56:32;24.70;;;11.27;;
74415;SDS011;62850;42.428;25.618;2022-12-07T13:59:00;26.65;;;11.40;;
74415;SDS011;62850;42.428;25.618;2022-12-07T14:01:26;26.42;;;12.27;;
74415;SDS011;62850;42.428;25.618;2022-12-07T14:03:53;27.58;;;12.80;;
74415;SDS011;62850;42.428;25.618;2022-12-07T14:06:25;28.38;;;11.55;;
74415;SDS011;62850;42.428;25.618;2022-12-07T14:09:09;26.55;;;10.63;;
74415;SDS011;62850;42.428;25.618;2022-12-07T14:11:45;26.98;;;10.60;;
74415;SDS011;62850;42.428;25.618;2022-12-07T14:14:30;32.90;;;12.50;;
74415;SDS011;62850;42.428;25.618;2022-12-07T14:17:11;26.55;;;11.27;;
74415;SDS011;62850;42.428;25.618;2022-12-07T14:22:18;31.23;;;12.63;;
74415;SDS011;62850;42.428;25.618;2022-12-07T14:27:55;30.42;;;13.25;;
74415;SDS011;62850;42.428;25.618;2022-12-07T14:30:22;36.88;;;15.52;;
74415;SDS011;62850;42.428;25.618;2022-12-07T14:32:59;34.47;;;16.27;;
74415;SDS011;62850;42.428;25.618;2022-12-07T14:37:51;58.25;;;25.65;;
74415;SDS011;62850;42.428;25.618;2022-12-07T14:40:18;51.38;;;22.88;;
74415;SDS011;62850;42.428;25.618;2022-12-07T14:42:49;48.13;;;19.45;;
74415;SDS011;62850;42.428;25.618;2022-12-07T14:45:18;43.63;;;18.60;;
74415;SDS011;62850;42.428;25.618;2022-12-07T14:47:46;46.85;;;18.85;;
74415;SDS011;62850;42.428;25.618;2022-12-07T14:50:12;37.47;;;17.75;;
74415;SDS011;62850;42.428;25.618;2022-12-07T14:52:39;35.65;;;15.98;;
74415;SDS011;62850;42.428;25.618;2022-12-07T14:55:20;45.90;;;15.73;;
74415;SDS011;62850;42.428;25.618;2022-12-07T14:57:48;40.42;;;16.75;;
74415;SDS011;62850;42.428;25.618;2022-12-07T15:00:15;41.00;;;17.70;;
74415;SDS011;62850;42.428;25.618;2022-12-07T15:02:42;53.15;;;18.17;;
74415;SDS011;62850;42.428;25.618;2022-12-07T15:05:08;43.55;;;20.23;;
74415;SDS011;62850;42.428;25.618;2022-12-07T15:07:34;38.13;;;18.05;;
74415;SDS011;62850;42.428;25.618;2022-12-07T15:09:59;45.38;;;19.27;;
74415;SDS011;62850;42.428;25.618;2022-12-07T15:12:25;42.15;;;18.80;;
74415;SDS011;62850;42.428;25.618;2022-12-07T15:14:51;47.60;;;19.45;;
74415;SDS011;62850;42.428;25.618;2022-12-07T15:17:16;38.55;;;16.77;;
74415;SDS011;62850;42.428;25.618;2022-12-07T15:19:42;40.60;;;15.55;;
74415;SDS011;62850;42.428;25.618;2022-12-07T15:22:08;48.05;;;17.20;;
74415;SDS011;62850;42.428;25.618;2022-12-07T15:24:35;41.78;;;18.50;;
74415;SDS011;62850;42.428;25.618;2022-12-07T15:27:01;43.22;;;18.70;;
74415;SDS011;62850;42.428;25.618;2022-12-07T15:29:27;39.03;;;19.17;;
74415;SDS011;62850;42.428;25.618;2022-12-07T15:31:53;40.67;;;19.10;;
74415;SDS011;62850;42.428;25.618;2022-12-07T15:34:18;47.45;;;20.00;;
74415;SDS011;62850;42.428;25.618;2022-12-07T15:36:44;53.15;;;21.65;;
74415;SDS011;62850;42.428;25.618;2022-12-07T15:39:09;50.42;;;20.27;;
74415;SDS011;62850;42.428;25.618;2022-12-07T15:41:35;44.33;;;19.73;;
74415;SDS011;62850;42.428;25.618;2022-12-07T15:44:01;45.90;;;18.40;;
74415;SDS011;62850;42.428;25.618;2022-12-07T15:46:45;45.35;;;19.13;;
74415;SDS011;62850;42.428;25.618;2022-12-07T15:49:17;57.75;;;23.92;;
74415;SDS011;62850;42.428;25.618;2022-12-07T15:51:44;42.67;;;18.00;;
74415;SDS011;62850;42.428;25.618;2022-12-07T15:54:20;41.55;;;17.70;;
74415;SDS011;62850;42.428;25.618;2022-12-07T15:56:47;47.17;;;17.83;;
74415;SDS011;62850;42.428;25.618;2022-12-07T15:59:13;43.00;;;19.50;;
74415;SDS011;62850;42.428;25.618;2022-12-07T16:01:39;48.58;;;17.92;;
74415;SDS011;62850;42.428;25.618;2022-12-07T16:04:04;40.58;;;19.70;;
74415;SDS011;62850;42.428;25.618;2022-12-07T16:06:30;43.13;;;19.58;;
74415;SDS011;62850;42.428;25.618;2022-12-07T16:08:55;47.63;;;20.27;;
74415;SDS011;62850;42.428;25.618;2022-12-07T16:11:21;45.47;;;19.15;;
74415;SDS011;62850;42.428;25.618;2022-12-07T16:13:47;43.15;;;19.15;;
74415;SDS011;62850;42.428;25.618;2022-12-07T16:16:14;43.92;;;18.95;;
74415;SDS011;62850;42.428;25.618;2022-12-07T16:18:42;40.50;;;18.63;;
74415;SDS011;62850;42.428;25.618;2022-12-07T16:21:11;54.03;;;20.83;;
74415;SDS011;62850;42.428;25.618;2022-12-07T16:23:38;42.03;;;18.38;;
74415;SDS011;62850;42.428;25.618;2022-12-07T16:26:06;44.78;;;20.38;;
74415;SDS011;62850;42.428;25.618;2022-12-07T16:28:43;43.20;;;19.77;;
74415;SDS011;62850;42.428;25.618;2022-12-07T16:31:10;47.78;;;20.30;;
74415;SDS011;62850;42.428;25.618;2022-12-07T16:33:38;46.30;;;20.38;;
74415;SDS011;62850;42.428;25.618;2022-12-07T16:36:06;51.10;;;18.70;;